sensor_id;sensor_type;location;lat;lon;timestamp;pressure;altitude;pressure_sealevel;temperature;humidity
31062;BME280;17724;53.546;9.974;2023-02-02T00:00:24;101077.63;;;6.31;100.00
31062;BME280;17724;53.546;9.974;2023-02-02T00:04:33;101076.53;;;6.32;100.00
31062;BME280;17724;53.546;9.974;2023-02-02T00:08:34;101070.19;;;6.38;100.00
31062;BME280;17724;53.546;9.974;2023-02-02T00:12:35;101077.22;;;6.28;100.00
31062;BME280;17724;53.546;9.974;2023-02-02T00:16:50;101087.06;;;6.29;100.00
31062;BME280;17724;53.546;9.974;2023-02-02T00:20:53;101086.25;;;6.28;100.00
31062;BME280;17724;53.546;9.974;2023-02-02T00:24:54;101101.38;;;6.31;100.00
31062;BME280;17724;53.546;9.974;2023-02-02T00:28:54;101092.81;;;6.46;100.00
31062;BME280;17724;53.546;9.974;2023-02-02T00:32:55;101117.47;;;6.39;100.00
31062;BME280;17724;53.546;9.974;2023-02-02T00:36:57;101126.44;;;6.46;100.00
31062;BME280;17724;53.546;9.974;2023-02-02T00:40:57;101125.97;;;6.49;100.00
31062;BME280;17724;53.546;9.974;2023-02-02T00:44:58;101131.69;;;6.48;100.00
31062;BME280;17724;53.546;9.974;2023-02-02T00:49:19;101135.28;;;6.41;100.00
31062;BME280;17724;53.546;9.974;2023-02-02T00:53:19;101138.66;;;6.44;100.00
31062;BME280;17724;53.546;9.974;2023-02-02T00:57:20;101141.16;;;6.20;100.00
31062;BME280;17724;53.546;9.974;2023-02-02T01:01:21;101145.09;;;6.24;100.00
31062;BME280;17724;53.546;9.974;2023-02-02T01:05:22;101162.63;;;6.41;100.00
31062;BME280;17724;53.546;9.974;2023-02-02T01:09:23;101156.38;;;6.34;100.00
31062;BME280;17724;53.546;9.974;2023-02-02T01:13:23;101152.75;;;6.40;100.00
31062;BME280;17724;53.546;9.974;2023-02-02T01:17:24;101163.09;;;6.38;100.00
31062;BME280;17724;53.546;9.974;2023-02-02T01:21:24;101153.25;;;6.31;100.00
31062;BME280;17724;53.546;9.974;2023-02-02T01:25:25;101163.00;;;6.20;100.00
31062;BME280;17724;53.546;9.974;2023-02-02T01:29:26;101161.22;;;6.32;100.00
31062;BME280;17724;53.546;9.974;2023-02-02T01:33:27;101175.19;;;6.17;100.00
31062;BME280;17724;53.546;9.974;2023-02-02T01:37:27;101186.50;;;6.21;100.00
31062;BME280;17724;53.546;9.974;2023-02-02T01:41:28;101194.66;;;6.28;100.00
31062;BME280;17724;53.546;9.974;2023-02-02T01:45:29;101187.97;;;6.24;100.00
31062;BME280;17724;53.546;9.974;2023-02-02T01:49:29;101191.09;;;6.27;100.00
31062;BME280;17724;53.546;9.974;2023-02-02T01:53:30;101223.63;;;6.35;100.00
31062;BME280;17724;53.546;9.974;2023-02-02T01:57:36;101238.81;;;6.25;100.00
31062;BME280;17724;53.546;9.974;2023-02-02T02:01:38;101249.31;;;6.21;100.00
31062;BME280;17724;53.546;9.974;2023-02-02T02:05:46;101225.94;;;5.93;100.00
31062;BME280;17724;53.546;9.974;2023-02-02T02:09:48;101247.56;;;5.95;100.00
31062;BME280;17724;53.546;9.974;2023-02-02T02:13:51;101247.50;;;6.08;100.00
31062;BME280;17724;53.546;9.974;2023-02-02T02:18:27;101252.16;;;6.01;100.00
31062;BME280;17724;53.546;9.974;2023-02-02T02:32:47;101293.53;;;6.05;100.00
31062;BME280;17724;53.546;9.974;2023-02-02T02:41:18;101289.53;;;6.01;100.00
31062;BME280;17724;53.546;9.974;2023-02-02T02:45:20;101271.94;;;5.83;100.00
31062;BME280;17724;53.546;9.974;2023-02-02T02:49:21;101288.75;;;5.80;100.00
31062;BME280;17724;53.546;9.974;2023-02-02T02:53:22;101284.72;;;5.89;100.00
31062;BME280;17724;53.546;9.974;2023-02-02T03:01:48;101307.59;;;6.02;100.00
31062;BME280;17724;53.546;9.974;2023-02-02T03:06:03;101284.09;;;5.94;100.00
31062;BME280;17724;53.546;9.974;2023-02-02T03:10:06;101304.03;;;6.01;100.00
31062;BME280;17724;53.546;9.974;2023-02-02T03:14:09;101303.00;;;5.82;100.00
31062;BME280;17724;53.546;9.974;2023-02-02T03:18:13;101318.53;;;5.88;100.00
31062;BME280;17724;53.546;9.974;2023-02-02T03:22:13;101326.28;;;5.98;100.00
31062;BME280;17724;53.546;9.974;2023-02-02T03:26:14;101328.19;;;5.98;100.00
31062;BME280;17724;53.546;9.974;2023-02-02T03:30:15;101332.16;;;6.02;100.00
31062;BME280;17724;53.546;9.974;2023-02-02T03:34:16;101344.75;;;6.09;100.00
31062;BME280;17724;53.546;9.974;2023-02-02T03:38:16;101343.09;;;6.02;100.00
31062;BME280;17724;53.546;9.974;2023-02-02T03:42:17;101341.19;;;6.09;100.00
31062;BME280;17724;53.546;9.974;2023-02-02T03:46:21;101354.84;;;6.09;100.00
31062;BME280;17724;53.546;9.974;2023-02-02T03:50:31;101358.56;;;6.21;100.00
31062;BME280;17724;53.546;9.974;2023-02-02T03:54:32;101366.81;;;6.01;100.00
31062;BME280;17724;53.546;9.974;2023-02-02T03:58:36;101384.44;;;6.12;100.00
31062;BME280;17724;53.546;9.974;2023-02-02T04:02:41;101382.38;;;6.07;100.00
31062;BME280;17724;53.546;9.974;2023-02-02T04:06:42;101385.09;;;6.01;100.00
31062;BME280;17724;53.546;9.974;2023-02-02T04:10:50;101394.34;;;5.86;100.00
31062;BME280;17724;53.546;9.974;2023-02-02T04:14:52;101398.56;;;5.96;100.00
31062;BME280;17724;53.546;9.974;2023-02-02T04:18:54;101408.63;;;5.88;100.00
31062;BME280;17724;53.546;9.974;2023-02-02T04:22:58;101392.28;;;5.95;100.00
31062;BME280;17724;53.546;9.974;2023-02-02T04:27:05;101422.69;;;6.12;100.00
31062;BME280;17724;53.546;9.974;2023-02-02T04:31:17;101390.34;;;5.82;100.00
31062;BME280;17724;53.546;9.974;2023-02-02T04:35:18;101430.69;;;6.07;100.00
31062;BME280;17724;53.546;9.974;2023-02-02T04:39:19;101396.03;;;5.81;100.00
31062;BME280;17724;53.546;9.974;2023-02-02T04:43:23;101423.34;;;6.01;100.00
31062;BME280;17724;53.546;9.974;2023-02-02T04:47:25;101452.50;;;6.27;100.00
31062;BME280;17724;53.546;9.974;2023-02-02T04:51:29;101445.91;;;6.48;100.00
31062;BME280;17724;53.546;9.974;2023-02-02T04:55:36;101435.94;;;6.02;100.00
31062;BME280;17724;53.546;9.974;2023-02-02T04:59:49;101426.91;;;6.01;100.00
31062;BME280;17724;53.546;9.974;2023-02-02T05:03:51;101420.59;;;5.87;100.00
31062;BME280;17724;53.546;9.974;2023-02-02T05:07:56;101458.78;;;6.21;100.00
31062;BME280;17724;53.546;9.974;2023-02-02T05:11:59;101451.25;;;6.16;100.00
31062;BME280;17724;53.546;9.974;2023-02-02T05:16:01;101415.75;;;6.09;100.00
31062;BME280;17724;53.546;9.974;2023-02-02T05:20:04;101441.16;;;6.16;100.00
31062;BME280;17724;53.546;9.974;2023-02-02T05:24:11;101444.75;;;6.04;100.00
31062;BME280;17724;53.546;9.974;2023-02-02T05:28:32;101470.56;;;6.28;100.00
31062;BME280;17724;53.546;9.974;2023-02-02T05:33:03;101470.50;;;6.41;100.00
31062;BME280;17724;53.546;9.974;2023-02-02T05:37:08;101482.28;;;6.41;100.00
31062;BME280;17724;53.546;9.974;2023-02-02T05:41:09;101480.59;;;6.40;100.00
31062;BME280;17724;53.546;9.974;2023-02-02T06:13:33;101515.84;;;6.62;100.00
31062;BME280;17724;53.546;9.974;2023-02-02T06:17:34;101526.16;;;6.66;100.00
31062;BME280;17724;53.546;9.974;2023-02-02T06:21:35;101533.13;;;6.62;100.00
31062;BME280;17724;53.546;9.974;2023-02-02T06:25:35;101532.06;;;6.63;100.00
31062;BME280;17724;53.546;9.974;2023-02-02T06:29:35;101530.81;;;6.53;100.00
31062;BME280;17724;53.546;9.974;2023-02-02T06:33:36;101539.88;;;6.40;100.00
31062;BME280;17724;53.546;9.974;2023-02-02T06:37:37;101543.22;;;6.49;100.00
31062;BME280;17724;53.546;9.974;2023-02-02T06:41:38;101553.94;;;6.50;100.00
31062;BME280;17724;53.546;9.974;2023-02-02T06:45:42;101565.50;;;6.46;100.00
31062;BME280;17724;53.546;9.974;2023-02-02T06:49:46;101569.94;;;6.40;100.00
31062;BME280;17724;53.546;9.974;2023-02-02T06:53:48;101582.69;;;6.66;100.00
31062;BME280;17724;53.546;9.974;2023-02-02T06:57:55;101584.81;;;6.71;100.00
31062;BME280;17724;53.546;9.974;2023-02-02T07:01:56;101583.94;;;6.77;100.00
31062;BME280;17724;53.546;9.974;2023-02-02T07:05:56;101595.72;;;6.84;100.00
31062;BME280;17724;53.546;9.974;2023-02-02T07:09:57;101610.88;;;6.73;100.00
31062;BME280;17724;53.546;9.974;2023-02-02T07:13:57;101620.16;;;6.52;100.00
31062;BME280;17724;53.546;9.974;2023-02-02T07:17:58;101616.75;;;6.70;100.00
31062;BME280;17724;53.546;9.974;2023-02-02T07:21:59;101614.03;;;6.70;100.00
31062;BME280;17724;53.546;9.974;2023-02-02T07:30:01;101628.38;;;6.59;100.00
31062;BME280;17724;53.546;9.974;2023-02-02T07:34:02;101636.75;;;6.71;100.00
31062;BME280;17724;53.546;9.974;2023-02-02T07:38:02;101632.34;;;6.43;100.00
31062;BME280;17724;53.546;9.974;2023-02-02T07:42:03;101642.22;;;6.57;100.00
31062;BME280;17724;53.546;9.974;2023-02-02T07:46:09;101653.38;;;6.56;100.00
31062;BME280;17724;53.546;9.974;2023-02-02T07:50:12;101652.94;;;6.52;100.00
31062;BME280;17724;53.546;9.974;2023-02-02T07:54:12;101662.38;;;6.70;100.00
31062;BME280;17724;53.546;9.974;2023-02-02T07:58:12;101671.03;;;6.80;100.00
31062;BME280;17724;53.546;9.974;2023-02-02T08:02:13;101684.25;;;6.70;100.00
31062;BME280;17724;53.546;9.974;2023-02-02T08:06:18;101681.50;;;6.89;100.00
31062;BME280;17724;53.546;9.974;2023-02-02T08:10:19;101683.81;;;6.99;100.00
31062;BME280;17724;53.546;9.974;2023-02-02T08:14:19;101695.59;;;6.93;100.00
31062;BME280;17724;53.546;9.974;2023-02-02T08:18:20;101703.16;;;7.04;100.00
31062;BME280;17724;53.546;9.974;2023-02-02T08:22:20;101712.63;;;7.08;100.00
31062;BME280;17724;53.546;9.974;2023-02-02T08:26:23;101722.13;;;6.99;100.00
31062;BME280;17724;53.546;9.974;2023-02-02T08:30:24;101720.63;;;6.97;100.00
31062;BME280;17724;53.546;9.974;2023-02-02T08:34:24;101738.94;;;7.03;100.00
31062;BME280;17724;53.546;9.974;2023-02-02T08:38:25;101736.41;;;7.01;100.00
31062;BME280;17724;53.546;9.974;2023-02-02T08:42:26;101741.47;;;7.04;100.00
31062;BME280;17724;53.546;9.974;2023-02-02T08:46:26;101743.13;;;7.12;100.00
31062;BME280;17724;53.546;9.974;2023-02-02T08:50:27;101743.16;;;6.92;99.85
31062;BME280;17724;53.546;9.974;2023-02-02T08:54:27;101747.13;;;6.89;99.91
31062;BME280;17724;53.546;9.974;2023-02-02T08:58:29;101756.41;;;6.95;99.62
31062;BME280;17724;53.546;9.974;2023-02-02T09:02:29;101752.63;;;6.83;99.34
31062;BME280;17724;53.546;9.974;2023-02-02T09:06:41;101753.66;;;6.88;100.00
31062;BME280;17724;53.546;9.974;2023-02-02T09:10:41;101762.72;;;6.82;100.00
31062;BME280;17724;53.546;9.974;2023-02-02T09:14:42;101774.91;;;7.00;99.89
31062;BME280;17724;53.546;9.974;2023-02-02T09:18:43;101778.50;;;7.07;99.28
31062;BME280;17724;53.546;9.974;2023-02-02T09:22:44;101798.69;;;7.12;98.40
31062;BME280;17724;53.546;9.974;2023-02-02T09:26:44;101796.97;;;7.18;98.30
31062;BME280;17724;53.546;9.974;2023-02-02T09:30:45;101797.84;;;7.19;99.00
31062;BME280;17724;53.546;9.974;2023-02-02T09:34:46;101806.91;;;7.19;98.50
31062;BME280;17724;53.546;9.974;2023-02-02T09:38:47;101810.88;;;7.16;98.20
31062;BME280;17724;53.546;9.974;2023-02-02T09:47:55;101836.34;;;7.44;97.40
31062;BME280;17724;53.546;9.974;2023-02-02T09:52:02;101833.41;;;7.25;96.59
31062;BME280;17724;53.546;9.974;2023-02-02T09:56:13;101834.66;;;7.43;98.10
31062;BME280;17724;53.546;9.974;2023-02-02T10:00:30;101844.16;;;7.27;96.60
31062;BME280;17724;53.546;9.974;2023-02-02T10:04:37;101843.94;;;7.28;97.37
31062;BME280;17724;53.546;9.974;2023-02-02T10:08:47;101855.06;;;7.33;96.38
31062;BME280;17724;53.546;9.974;2023-02-02T10:17:02;101866.44;;;7.57;95.74
31062;BME280;17724;53.546;9.974;2023-02-02T10:21:19;101856.75;;;7.48;95.73
31062;BME280;17724;53.546;9.974;2023-02-02T10:25:26;101882.84;;;7.70;94.83
31062;BME280;17724;53.546;9.974;2023-02-02T10:34:14;101891.91;;;7.71;93.39
31062;BME280;17724;53.546;9.974;2023-02-02T10:42:42;101921.56;;;7.94;91.76
31062;BME280;17724;53.546;9.974;2023-02-02T10:47:12;101925.13;;;8.07;91.41
31062;BME280;17724;53.546;9.974;2023-02-02T10:51:23;101927.44;;;8.04;90.32
31062;BME280;17724;53.546;9.974;2023-02-02T11:00:02;101938.38;;;8.24;90.53
31062;BME280;17724;53.546;9.974;2023-02-02T11:04:05;101950.41;;;8.16;89.29
31062;BME280;17724;53.546;9.974;2023-02-02T11:08:29;101944.88;;;8.36;90.36
31062;BME280;17724;53.546;9.974;2023-02-02T11:12:33;101932.22;;;8.28;89.04
31062;BME280;17724;53.546;9.974;2023-02-02T11:16:36;101956.47;;;8.45;88.59
31062;BME280;17724;53.546;9.974;2023-02-02T11:20:37;101951.38;;;8.55;87.49
31062;BME280;17724;53.546;9.974;2023-02-02T11:24:46;101965.31;;;8.33;87.77
31062;BME280;17724;53.546;9.974;2023-02-02T11:28:50;101958.59;;;8.43;87.05
31062;BME280;17724;53.546;9.974;2023-02-02T11:32:52;101953.75;;;8.31;85.59
31062;BME280;17724;53.546;9.974;2023-02-02T11:45:03;101960.69;;;8.41;84.01
31062;BME280;17724;53.546;9.974;2023-02-02T11:49:11;101974.81;;;8.44;84.42
31062;BME280;17724;53.546;9.974;2023-02-02T11:57:25;101969.50;;;8.56;84.87
31062;BME280;17724;53.546;9.974;2023-02-02T12:01:30;101977.25;;;8.72;83.60
31062;BME280;17724;53.546;9.974;2023-02-02T12:05:34;101971.56;;;8.74;84.30
31062;BME280;17724;53.546;9.974;2023-02-02T12:09:35;101971.09;;;8.77;84.26
31062;BME280;17724;53.546;9.974;2023-02-02T12:13:49;101969.34;;;8.96;84.39
31062;BME280;17724;53.546;9.974;2023-02-02T12:27:16;101988.84;;;8.74;81.47
31062;BME280;17724;53.546;9.974;2023-02-02T12:43:46;101987.53;;;8.90;80.89
31062;BME280;17724;53.546;9.974;2023-02-02T12:48:03;101987.13;;;8.86;80.90
31062;BME280;17724;53.546;9.974;2023-02-02T12:56:48;101997.28;;;8.73;80.36
31062;BME280;17724;53.546;9.974;2023-02-02T13:01:02;101989.47;;;8.70;80.56
31062;BME280;17724;53.546;9.974;2023-02-02T13:09:29;102016.28;;;8.68;78.25
31062;BME280;17724;53.546;9.974;2023-02-02T13:13:36;102001.09;;;8.72;79.44
31062;BME280;17724;53.546;9.974;2023-02-02T13:17:46;102011.16;;;8.84;80.03
31062;BME280;17724;53.546;9.974;2023-02-02T13:21:49;102010.41;;;8.64;78.60
31062;BME280;17724;53.546;9.974;2023-02-02T13:26:01;102007.81;;;8.76;79.54
31062;BME280;17724;53.546;9.974;2023-02-02T13:34:22;102013.56;;;8.68;80.24
31062;BME280;17724;53.546;9.974;2023-02-02T13:38:28;102005.41;;;8.41;78.81
31062;BME280;17724;53.546;9.974;2023-02-02T13:47:00;102013.81;;;8.53;78.20
31062;BME280;17724;53.546;9.974;2023-02-02T13:56:38;102021.19;;;8.32;74.82
31062;BME280;17724;53.546;9.974;2023-02-02T14:04:23;102028.75;;;8.63;75.10
31062;BME280;17724;53.546;9.974;2023-02-02T14:08:26;102022.25;;;8.45;76.67
31062;BME280;17724;53.546;9.974;2023-02-02T14:12:30;102029.19;;;8.60;76.39
31062;BME280;17724;53.546;9.974;2023-02-02T14:20:43;102028.09;;;8.75;77.41
31062;BME280;17724;53.546;9.974;2023-02-02T14:24:47;102029.16;;;8.74;78.84
31062;BME280;17724;53.546;9.974;2023-02-02T14:28:49;102035.91;;;8.71;79.79
31062;BME280;17724;53.546;9.974;2023-02-02T14:32:50;102036.09;;;8.83;80.85
31062;BME280;17724;53.546;9.974;2023-02-02T14:41:22;102042.69;;;8.62;80.91
31062;BME280;17724;53.546;9.974;2023-02-02T14:46:47;102051.94;;;8.74;82.48
31062;BME280;17724;53.546;9.974;2023-02-02T14:50:44;102058.72;;;8.58;81.09
31062;BME280;17724;53.546;9.974;2023-02-02T14:54:47;102060.22;;;8.54;82.50
31062;BME280;17724;53.546;9.974;2023-02-02T15:02:51;102085.03;;;8.79;83.50
31062;BME280;17724;53.546;9.974;2023-02-02T15:06:53;102090.13;;;8.82;82.21
31062;BME280;17724;53.546;9.974;2023-02-02T15:19:29;102105.97;;;8.74;83.20
31062;BME280;17724;53.546;9.974;2023-02-02T15:23:41;102107.84;;;8.80;83.09
31062;BME280;17724;53.546;9.974;2023-02-02T15:27:49;102101.53;;;8.59;81.90
31062;BME280;17724;53.546;9.974;2023-02-02T15:31:52;102115.88;;;8.61;81.35
31062;BME280;17724;53.546;9.974;2023-02-02T15:35:56;102121.59;;;8.60;80.89
31062;BME280;17724;53.546;9.974;2023-02-02T15:40:00;102129.81;;;8.60;82.14
31062;BME280;17724;53.546;9.974;2023-02-02T15:44:20;102135.53;;;8.58;81.86
31062;BME280;17724;53.546;9.974;2023-02-02T15:52:25;102136.72;;;8.09;82.78
31062;BME280;17724;53.546;9.974;2023-02-02T15:56:29;102149.41;;;8.24;84.11
31062;BME280;17724;53.546;9.974;2023-02-02T16:00:33;102154.66;;;8.25;83.83
31062;BME280;17724;53.546;9.974;2023-02-02T16:04:39;102162.47;;;8.15;84.33
31062;BME280;17724;53.546;9.974;2023-02-02T16:08:41;102161.59;;;7.95;85.76
31062;BME280;17724;53.546;9.974;2023-02-02T16:12:42;102170.44;;;7.97;85.43
31062;BME280;17724;53.546;9.974;2023-02-02T16:16:43;102176.13;;;8.02;85.54
31062;BME280;17724;53.546;9.974;2023-02-02T16:20:44;102176.97;;;7.96;84.08
31062;BME280;17724;53.546;9.974;2023-02-02T16:24:48;102183.31;;;8.09;84.85
31062;BME280;17724;53.546;9.974;2023-02-02T16:28:50;102192.41;;;8.10;85.17
31062;BME280;17724;53.546;9.974;2023-02-02T16:32:51;102199.09;;;7.87;86.75
31062;BME280;17724;53.546;9.974;2023-02-02T16:37:06;102192.50;;;7.82;86.60
31062;BME280;17724;53.546;9.974;2023-02-02T16:41:10;102188.47;;;7.64;87.81
31062;BME280;17724;53.546;9.974;2023-02-02T16:45:30;102182.19;;;7.77;88.96
31062;BME280;17724;53.546;9.974;2023-02-02T16:49:32;102181.13;;;7.72;90.15
31062;BME280;17724;53.546;9.974;2023-02-02T16:53:33;102169.06;;;7.59;89.61
31062;BME280;17724;53.546;9.974;2023-02-02T16:57:35;102174.16;;;7.62;89.55
31062;BME280;17724;53.546;9.974;2023-02-02T17:01:45;102174.78;;;7.64;89.62
31062;BME280;17724;53.546;9.974;2023-02-02T17:05:51;102178.53;;;7.57;90.27
31062;BME280;17724;53.546;9.974;2023-02-02T17:14:19;102193.22;;;7.43;90.67
31062;BME280;17724;53.546;9.974;2023-02-02T17:18:20;102195.97;;;7.43;91.07
31062;BME280;17724;53.546;9.974;2023-02-02T17:22:22;102199.56;;;7.50;90.93
31062;BME280;17724;53.546;9.974;2023-02-02T17:26:23;102192.63;;;7.47;91.10
31062;BME280;17724;53.546;9.974;2023-02-02T17:30:23;102186.09;;;7.48;92.10
31062;BME280;17724;53.546;9.974;2023-02-02T17:34:24;102187.75;;;7.49;92.43
31062;BME280;17724;53.546;9.974;2023-02-02T17:38:25;102188.81;;;7.48;91.27
31062;BME280;17724;53.546;9.974;2023-02-02T17:42:27;102190.69;;;7.41;90.25
31062;BME280;17724;53.546;9.974;2023-02-02T17:46:27;102190.50;;;7.43;89.55
31062;BME280;17724;53.546;9.974;2023-02-02T17:50:31;102183.31;;;7.41;90.27
31062;BME280;17724;53.546;9.974;2023-02-02T17:54:32;102182.03;;;7.37;90.64
31062;BME280;17724;53.546;9.974;2023-02-02T17:58:33;102175.75;;;7.44;90.62
31062;BME280;17724;53.546;9.974;2023-02-02T18:02:33;102175.09;;;7.41;91.26
31062;BME280;17724;53.546;9.974;2023-02-02T18:06:34;102188.81;;;7.48;90.84
31062;BME280;17724;53.546;9.974;2023-02-02T18:10:34;102183.28;;;7.35;90.72
31062;BME280;17724;53.546;9.974;2023-02-02T18:14:36;102180.72;;;7.27;91.25
31062;BME280;17724;53.546;9.974;2023-02-02T18:18:37;102179.06;;;7.32;90.10
31062;BME280;17724;53.546;9.974;2023-02-02T18:22:38;102171.50;;;7.34;90.75
31062;BME280;17724;53.546;9.974;2023-02-02T18:26:38;102179.31;;;7.44;90.22
31062;BME280;17724;53.546;9.974;2023-02-02T18:30:39;102173.63;;;7.46;90.25
31062;BME280;17724;53.546;9.974;2023-02-02T18:34:40;102171.34;;;7.43;89.48
31062;BME280;17724;53.546;9.974;2023-02-02T18:38:42;102164.41;;;7.47;90.51
31062;BME280;17724;53.546;9.974;2023-02-02T18:42:44;102172.19;;;7.50;90.61
31062;BME280;17724;53.546;9.974;2023-02-02T18:46:46;102162.09;;;7.57;89.64
31062;BME280;17724;53.546;9.974;2023-02-02T18:50:46;102160.25;;;7.64;89.64
31062;BME280;17724;53.546;9.974;2023-02-02T18:54:47;102153.09;;;7.63;90.62
31062;BME280;17724;53.546;9.974;2023-02-02T18:58:48;102152.31;;;7.82;89.86
31062;BME280;17724;53.546;9.974;2023-02-02T19:02:48;102154.13;;;7.69;89.53
31062;BME280;17724;53.546;9.974;2023-02-02T19:06:49;102158.75;;;7.61;90.11
31062;BME280;17724;53.546;9.974;2023-02-02T19:11:14;102141.88;;;7.58;90.43
31062;BME280;17724;53.546;9.974;2023-02-02T19:15:16;102126.31;;;7.65;90.91
31062;BME280;17724;53.546;9.974;2023-02-02T19:19:32;102113.31;;;7.80;89.72
31062;BME280;17724;53.546;9.974;2023-02-02T19:23:33;102115.63;;;7.83;88.56
31062;BME280;17724;53.546;9.974;2023-02-02T19:27:34;102111.00;;;7.84;88.79
31062;BME280;17724;53.546;9.974;2023-02-02T19:31:35;102106.53;;;7.70;88.08
31062;BME280;17724;53.546;9.974;2023-02-02T19:35:37;102101.28;;;7.68;89.46
31062;BME280;17724;53.546;9.974;2023-02-02T19:39:38;102090.31;;;7.55;89.67
31062;BME280;17724;53.546;9.974;2023-02-02T19:43:39;102080.97;;;7.36;90.69
31062;BME280;17724;53.546;9.974;2023-02-02T19:47:43;102085.41;;;7.44;92.03
31062;BME280;17724;53.546;9.974;2023-02-02T19:51:50;102083.28;;;7.32;93.37
31062;BME280;17724;53.546;9.974;2023-02-02T19:55:52;102077.19;;;7.30;95.17
31062;BME280;17724;53.546;9.974;2023-02-02T19:59:53;102068.94;;;7.24;96.96
31062;BME280;17724;53.546;9.974;2023-02-02T20:03:53;102068.75;;;7.32;98.21
31062;BME280;17724;53.546;9.974;2023-02-02T20:08:00;102074.44;;;7.37;100.00
31062;BME280;17724;53.546;9.974;2023-02-02T20:12:20;102076.94;;;7.25;100.00
31062;BME280;17724;53.546;9.974;2023-02-02T20:16:40;102059.41;;;7.06;100.00
31062;BME280;17724;53.546;9.974;2023-02-02T20:20:43;102064.19;;;6.98;100.00
31062;BME280;17724;53.546;9.974;2023-02-02T20:24:45;102048.34;;;6.80;100.00
31062;BME280;17724;53.546;9.974;2023-02-02T20:28:48;102039.34;;;6.93;100.00
31062;BME280;17724;53.546;9.974;2023-02-02T20:32:53;102036.53;;;6.73;100.00
31062;BME280;17724;53.546;9.974;2023-02-02T20:41:12;102039.44;;;6.64;100.00
31062;BME280;17724;53.546;9.974;2023-02-02T20:45:15;102044.59;;;6.87;100.00
31062;BME280;17724;53.546;9.974;2023-02-02T20:49:17;102041.16;;;6.72;100.00
31062;BME280;17724;53.546;9.974;2023-02-02T20:53:19;102030.34;;;6.57;100.00
31062;BME280;17724;53.546;9.974;2023-02-02T20:57:20;102015.00;;;6.56;100.00
31062;BME280;17724;53.546;9.974;2023-02-02T21:01:21;102002.34;;;6.49;100.00
31062;BME280;17724;53.546;9.974;2023-02-02T21:05:22;102013.88;;;6.44;100.00
31062;BME280;17724;53.546;9.974;2023-02-02T21:09:24;101993.91;;;6.50;100.00
31062;BME280;17724;53.546;9.974;2023-02-02T21:13:24;101991.63;;;6.54;100.00
31062;BME280;17724;53.546;9.974;2023-02-02T21:17:25;101998.19;;;6.59;100.00
31062;BME280;17724;53.546;9.974;2023-02-02T21:21:26;101995.38;;;6.46;100.00
31062;BME280;17724;53.546;9.974;2023-02-02T21:25:27;101980.47;;;6.49;100.00
31062;BME280;17724;53.546;9.974;2023-02-02T21:29:31;101975.50;;;6.65;100.00
31062;BME280;17724;53.546;9.974;2023-02-02T21:33:32;101977.34;;;6.52;100.00
31062;BME280;17724;53.546;9.974;2023-02-02T21:37:35;101981.03;;;6.37;100.00
31062;BME280;17724;53.546;9.974;2023-02-02T21:41:36;101983.59;;;6.46;100.00
31062;BME280;17724;53.546;9.974;2023-02-02T21:45:37;101990.59;;;6.55;100.00
31062;BME280;17724;53.546;9.974;2023-02-02T21:49:38;101978.19;;;6.17;100.00
31062;BME280;17724;53.546;9.974;2023-02-02T21:53:39;101969.22;;;5.96;100.00
31062;BME280;17724;53.546;9.974;2023-02-02T21:57:39;101958.88;;;5.91;100.00
31062;BME280;17724;53.546;9.974;2023-02-02T22:01:42;101956.97;;;5.63;100.00
31062;BME280;17724;53.546;9.974;2023-02-02T22:05:42;101947.53;;;5.66;100.00
31062;BME280;17724;53.546;9.974;2023-02-02T22:09:44;101944.84;;;5.44;100.00
31062;BME280;17724;53.546;9.974;2023-02-02T22:13:45;101917.03;;;5.34;100.00
31062;BME280;17724;53.546;9.974;2023-02-02T22:17:46;101916.34;;;5.47;100.00
31062;BME280;17724;53.546;9.974;2023-02-02T22:21:47;101915.28;;;5.48;100.00
31062;BME280;17724;53.546;9.974;2023-02-02T22:25:49;101901.44;;;5.50;100.00
31062;BME280;17724;53.546;9.974;2023-02-02T22:29:56;101885.59;;;5.38;100.00
31062;BME280;17724;53.546;9.974;2023-02-02T22:33:59;101861.34;;;5.50;100.00
31062;BME280;17724;53.546;9.974;2023-02-02T22:38:00;101861.56;;;5.49;100.00
31062;BME280;17724;53.546;9.974;2023-02-02T22:42:01;101848.91;;;5.41;100.00
31062;BME280;17724;53.546;9.974;2023-02-02T22:46:02;101844.78;;;5.52;100.00
31062;BME280;17724;53.546;9.974;2023-02-02T22:50:03;101846.09;;;5.56;100.00
31062;BME280;17724;53.546;9.974;2023-02-02T22:54:03;101844.19;;;5.56;100.00
31062;BME280;17724;53.546;9.974;2023-02-02T22:58:04;101830.84;;;5.68;100.00
31062;BME280;17724;53.546;9.974;2023-02-02T23:02:04;101821.75;;;5.61;100.00
31062;BME280;17724;53.546;9.974;2023-02-02T23:06:04;101819.03;;;5.61;100.00
31062;BME280;17724;53.546;9.974;2023-02-02T23:10:06;101817.84;;;5.77;100.00
31062;BME280;17724;53.546;9.974;2023-02-02T23:14:06;101791.09;;;5.59;100.00
31062;BME280;17724;53.546;9.974;2023-02-02T23:18:07;101785.47;;;5.67;100.00
31062;BME280;17724;53.546;9.974;2023-02-02T23:22:07;101774.13;;;5.70;100.00
31062;BME280;17724;53.546;9.974;2023-02-02T23:26:08;101755.97;;;5.49;100.00
31062;BME280;17724;53.546;9.974;2023-02-02T23:30:10;101751.19;;;5.58;100.00
31062;BME280;17724;53.546;9.974;2023-02-02T23:34:11;101735.09;;;5.69;100.00
31062;BME280;17724;53.546;9.974;2023-02-02T23:38:12;101729.19;;;5.66;100.00
31062;BME280;17724;53.546;9.974;2023-02-02T23:42:13;101732.34;;;5.63;100.00
31062;BME280;17724;53.546;9.974;2023-02-02T23:46:13;101709.81;;;5.96;100.00
31062;BME280;17724;53.546;9.974;2023-02-02T23:50:14;101718.00;;;6.02;100.00
31062;BME280;17724;53.546;9.974;2023-02-02T23:54:15;101715.06;;;5.97;100.00
31062;BME280;17724;53.546;9.974;2023-02-02T23:58:15;101711.97;;;6.13;100.00
